createdAt,value
2018-07-25T00:02:02.266Z,4.60
2018-07-25T00:04:29.529Z,4.30
2018-07-25T00:06:56.654Z,4.53
2018-07-25T00:09:23.767Z,4.87
2018-07-25T00:11:50.885Z,4.80
2018-07-25T00:14:18.006Z,4.77
2018-07-25T00:16:45.138Z,4.83
2018-07-25T00:19:12.323Z,4.67
2018-07-25T00:21:39.495Z,4.67
2018-07-25T00:24:06.651Z,4.40
2018-07-25T00:26:33.845Z,4.73
2018-07-25T00:29:00.986Z,5.37
2018-07-25T00:31:28.106Z,5.20
2018-07-25T00:33:55.240Z,4.20
2018-07-25T00:36:22.522Z,5.20
2018-07-25T00:38:49.530Z,5.03
2018-07-25T00:41:16.666Z,4.80
2018-07-25T00:43:43.797Z,4.33
2018-07-25T00:46:10.914Z,4.73
2018-07-25T00:48:38.193Z,4.93
2018-07-25T00:51:05.442Z,4.70
2018-07-25T00:53:32.579Z,4.50
2018-07-25T00:55:59.683Z,4.07
2018-07-25T00:58:26.794Z,4.50
2018-07-25T01:00:53.919Z,4.80
2018-07-25T01:03:21.014Z,4.20
2018-07-25T01:05:48.558Z,4.60
2018-07-25T01:08:15.685Z,4.80
2018-07-25T01:10:42.807Z,4.53
2018-07-25T01:13:10.941Z,4.50
2018-07-25T01:15:38.307Z,4.30
2018-07-25T01:18:05.718Z,5.30
2018-07-25T01:20:32.866Z,4.90
2018-07-25T01:22:59.994Z,4.70
2018-07-25T01:25:27.113Z,4.90
2018-07-25T01:27:54.241Z,4.90
2018-07-25T01:30:21.368Z,4.43
2018-07-25T01:32:48.488Z,4.90
2018-07-25T01:35:15.618Z,4.30
2018-07-25T01:37:42.749Z,4.30
2018-07-25T01:40:09.935Z,4.50
2018-07-25T01:42:37.114Z,5.00
2018-07-25T01:45:04.363Z,5.20
2018-07-25T01:47:31.485Z,4.83
2018-07-25T01:49:58.633Z,4.97
2018-07-25T01:52:25.759Z,4.57
2018-07-25T01:54:52.866Z,4.90
2018-07-25T01:57:19.982Z,4.97
2018-07-25T01:59:47.101Z,4.10
2018-07-25T02:02:14.236Z,4.97
2018-07-25T02:04:41.367Z,4.40
2018-07-25T02:07:08.754Z,5.27
2018-07-25T02:09:35.967Z,4.90
2018-07-25T02:12:03.128Z,4.93
2018-07-25T02:14:30.248Z,5.00
2018-07-25T02:16:57.400Z,4.80
2018-07-25T02:19:24.568Z,5.10
2018-07-25T02:21:51.669Z,4.73
2018-07-25T02:24:18.786Z,5.30
2018-07-25T02:26:46.042Z,5.10
2018-07-25T02:29:13.214Z,4.90
2018-07-25T02:31:40.407Z,5.03
2018-07-25T02:34:13.275Z,5.63
2018-07-25T02:36:40.464Z,5.17
2018-07-25T02:39:09.253Z,5.10
2018-07-25T02:41:36.565Z,5.40
2018-07-25T02:44:03.765Z,4.93
2018-07-25T02:46:30.934Z,5.00
2018-07-25T02:48:58.054Z,5.37
2018-07-25T02:51:25.163Z,5.37
2018-07-25T02:53:52.303Z,5.60
2018-07-25T02:56:19.579Z,5.17
2018-07-25T02:58:46.708Z,5.40
2018-07-25T03:01:13.855Z,4.60
2018-07-25T03:03:41.043Z,4.63
2018-07-25T03:06:16.249Z,4.57
2018-07-25T03:08:43.345Z,4.67
2018-07-25T03:11:10.507Z,5.00
2018-07-25T03:13:37.657Z,5.00
2018-07-25T03:16:08.575Z,5.10
2018-07-25T03:18:35.961Z,5.03
2018-07-25T03:21:03.193Z,5.17
2018-07-25T03:23:32.900Z,5.43
2018-07-25T03:26:00.040Z,5.23
2018-07-25T03:28:27.657Z,4.97
2018-07-25T03:30:54.754Z,4.53
2018-07-25T03:33:22.741Z,5.33
2018-07-25T03:35:49.872Z,5.00
2018-07-25T03:38:17.006Z,5.23
2018-07-25T03:40:44.243Z,4.50
2018-07-25T03:43:11.373Z,5.30
2018-07-25T03:45:38.521Z,5.50
2018-07-25T03:48:05.734Z,5.60
2018-07-25T03:50:32.894Z,5.10
2018-07-25T03:53:00.015Z,5.40
2018-07-25T03:55:27.144Z,5.00
2018-07-25T03:57:54.643Z,5.33
2018-07-25T04:00:21.797Z,5.33
2018-07-25T04:02:48.925Z,5.10
2018-07-25T04:05:16.442Z,5.17
2018-07-25T04:07:43.569Z,5.40
2018-07-25T04:10:10.700Z,5.90
2018-07-25T04:12:37.877Z,5.70
2018-07-25T04:15:05.346Z,6.27
2018-07-25T04:17:40.857Z,5.70
2018-07-25T04:20:08.030Z,5.17
2018-07-25T04:22:35.157Z,5.30
2018-07-25T04:25:02.483Z,5.60
2018-07-25T04:27:29.633Z,5.20
2018-07-25T04:29:56.739Z,5.50
2018-07-25T04:32:23.891Z,5.53
2018-07-25T04:34:51.004Z,5.07
2018-07-25T04:37:18.138Z,5.43
2018-07-25T04:39:45.274Z,5.83
2018-07-25T04:42:12.421Z,5.10
2018-07-25T04:44:39.562Z,5.50
2018-07-25T04:47:06.750Z,4.93
2018-07-25T04:49:33.892Z,5.67
2018-07-25T04:52:01.014Z,5.20
2018-07-25T04:54:28.145Z,5.30
2018-07-25T04:56:55.277Z,4.87
2018-07-25T04:59:23.185Z,5.10
2018-07-25T05:01:50.304Z,4.53
2018-07-25T05:04:17.454Z,5.13
2018-07-25T05:06:44.582Z,5.07
2018-07-25T05:09:11.735Z,4.63
2018-07-25T05:11:38.912Z,4.87
2018-07-25T05:14:06.458Z,5.00
2018-07-25T05:16:34.137Z,6.08
2018-07-25T05:19:01.486Z,4.70
2018-07-25T05:21:28.622Z,4.62
2018-07-25T05:23:55.751Z,4.85
2018-07-25T05:26:22.902Z,4.72
2018-07-25T05:28:50.006Z,4.87
2018-07-25T05:31:17.391Z,6.15
2018-07-25T05:33:44.535Z,5.08
2018-07-25T05:36:11.649Z,5.05
2018-07-25T05:38:38.837Z,4.95
2018-07-25T05:41:06.102Z,4.95
2018-07-25T05:43:33.308Z,5.47
2018-07-25T05:46:00.442Z,5.72
2018-07-25T05:48:27.574Z,5.87
2018-07-25T05:50:54.766Z,5.40
2018-07-25T05:53:21.823Z,5.20
2018-07-25T05:55:48.958Z,5.35
2018-07-25T05:58:16.106Z,5.17
2018-07-25T06:00:43.699Z,5.80
2018-07-25T06:03:10.993Z,5.33
2018-07-25T06:05:38.166Z,5.40
2018-07-25T06:08:05.407Z,5.80
2018-07-25T06:10:32.592Z,5.90
2018-07-25T06:12:59.733Z,5.40
2018-07-25T06:15:27.473Z,6.40
2018-07-25T06:17:54.622Z,6.42
2018-07-25T06:20:21.787Z,5.87
2018-07-25T06:22:48.938Z,5.40
2018-07-25T06:25:16.057Z,5.97
2018-07-25T06:27:43.603Z,5.67
2018-07-25T06:30:10.786Z,6.50
2018-07-25T06:32:38.035Z,6.00
2018-07-25T06:35:05.529Z,5.75
2018-07-25T06:37:32.679Z,5.83
2018-07-25T06:39:59.801Z,5.95
2018-07-25T06:42:26.951Z,5.65
2018-07-25T06:44:54.122Z,5.35
2018-07-25T06:47:21.242Z,5.45
2018-07-25T06:49:48.365Z,5.95
2018-07-25T06:52:15.501Z,5.72
2018-07-25T06:54:42.778Z,5.70
2018-07-25T06:57:10.037Z,5.90
2018-07-25T06:59:37.434Z,5.75
2018-07-25T07:02:04.882Z,5.58
2018-07-25T07:04:32.009Z,5.75
2018-07-25T07:06:59.212Z,6.30
2018-07-25T07:09:26.313Z,5.92
2018-07-25T07:11:53.453Z,5.53
2018-07-25T07:14:20.561Z,5.80
2018-07-25T07:16:47.722Z,5.80
2018-07-25T07:19:14.855Z,5.87
2018-07-25T07:21:41.966Z,5.60
2018-07-25T07:24:09.136Z,5.85
2018-07-25T07:26:36.290Z,6.10
2018-07-25T07:29:03.834Z,4.92
2018-07-25T07:31:31.001Z,5.50
2018-07-25T07:33:58.164Z,5.33
2018-07-25T07:36:25.329Z,5.25
2018-07-25T07:38:52.448Z,4.75
2018-07-25T07:41:19.571Z,6.37
2018-07-25T07:43:46.692Z,5.20
2018-07-25T07:46:13.890Z,5.62
2018-07-25T07:48:41.018Z,5.85
2018-07-25T07:51:08.281Z,5.12
2018-07-25T07:53:35.462Z,6.85
2018-07-25T07:56:02.627Z,6.33
2018-07-25T07:58:29.794Z,5.58
2018-07-25T08:00:56.960Z,6.08
2018-07-25T08:03:24.181Z,6.45
2018-07-25T08:05:51.309Z,5.72
2018-07-25T08:08:18.442Z,6.20
2018-07-25T08:10:45.593Z,6.03
2018-07-25T08:13:12.702Z,6.25
2018-07-25T08:15:39.826Z,5.70
2018-07-25T08:18:06.995Z,5.53
2018-07-25T08:20:34.154Z,5.35
2018-07-25T08:23:01.297Z,5.97
2018-07-25T08:25:28.510Z,6.10
2018-07-25T08:27:55.677Z,6.42
2018-07-25T08:30:22.889Z,5.97
2018-07-25T08:32:50.030Z,5.95
2018-07-25T08:35:17.162Z,6.00
2018-07-25T08:37:44.277Z,5.42
2018-07-25T08:40:11.431Z,5.72
2018-07-25T08:42:38.578Z,6.50
2018-07-25T08:45:06.289Z,5.92
2018-07-25T08:47:33.443Z,5.75
2018-07-25T08:50:00.546Z,5.70
2018-07-25T08:52:27.752Z,5.90
2018-07-25T08:54:54.834Z,5.40
2018-07-25T08:57:22.001Z,6.78
2018-07-25T08:59:49.152Z,6.35
2018-07-25T09:02:16.322Z,6.00
2018-07-25T09:04:43.534Z,5.80
2018-07-25T09:07:10.782Z,5.67
2018-07-25T09:09:44.907Z,5.17
2018-07-25T09:12:12.054Z,5.47
2018-07-25T09:14:39.198Z,5.92
2018-07-25T09:17:06.448Z,5.83
2018-07-25T09:19:33.601Z,6.30
2018-07-25T09:22:01.051Z,5.67
2018-07-25T09:24:28.169Z,5.67
2018-07-25T09:26:55.282Z,6.22
2018-07-25T09:29:22.392Z,5.65
2018-07-25T09:31:49.519Z,5.58
2018-07-25T09:34:16.817Z,6.03
2018-07-25T09:36:43.797Z,5.72
2018-07-25T09:39:11.354Z,5.75
2018-07-25T09:41:38.690Z,5.28
2018-07-25T09:44:06.030Z,6.10
2018-07-25T09:46:33.581Z,6.58
2018-07-25T09:49:00.592Z,6.10
2018-07-25T09:51:27.756Z,6.53
2018-07-25T09:53:54.858Z,6.25
2018-07-25T09:56:22.010Z,6.50
2018-07-25T09:58:49.168Z,5.97
2018-07-25T10:01:16.250Z,5.83
2018-07-25T10:03:43.370Z,6.05
2018-07-25T10:06:10.489Z,7.50
2018-07-25T10:08:37.843Z,5.92
2018-07-25T10:11:05.321Z,5.97
2018-07-25T10:13:32.454Z,6.20
2018-07-25T10:15:59.587Z,5.65
2018-07-25T10:18:26.713Z,6.12
2018-07-25T10:20:53.861Z,5.65
2018-07-25T10:23:20.989Z,5.85
2018-07-25T10:25:48.169Z,5.75
2018-07-25T10:28:15.316Z,5.80
2018-07-25T10:30:42.425Z,5.87
2018-07-25T10:33:09.569Z,5.58
2018-07-25T10:35:36.778Z,5.75
2018-07-25T10:38:04.052Z,5.08
2018-07-25T10:40:31.170Z,4.90
2018-07-25T10:42:58.293Z,5.55
2018-07-25T10:45:25.478Z,5.95
2018-07-25T10:47:52.606Z,5.30
2018-07-25T10:50:19.722Z,5.03
2018-07-25T10:52:46.870Z,5.03
2018-07-25T10:55:13.999Z,4.90
2018-07-25T10:57:41.123Z,4.53
2018-07-25T11:00:08.392Z,4.50
2018-07-25T11:02:36.066Z,4.08
2018-07-25T11:05:03.289Z,4.05
2018-07-25T11:07:30.637Z,3.45
2018-07-25T11:09:57.989Z,3.85
2018-07-25T11:12:25.118Z,4.25
2018-07-25T11:14:52.257Z,4.40
2018-07-25T11:17:19.427Z,4.72
2018-07-25T11:19:46.531Z,4.17
2018-07-25T11:22:14.085Z,4.75
2018-07-25T11:24:41.214Z,4.70
2018-07-25T11:27:08.530Z,5.00
2018-07-25T11:29:35.953Z,4.92
2018-07-25T11:32:03.344Z,4.55
2018-07-25T11:34:30.530Z,4.78
2018-07-25T11:36:57.650Z,4.25
2018-07-25T11:39:24.742Z,4.42
2018-07-25T11:41:51.895Z,4.37
2018-07-25T11:44:19.001Z,5.03
2018-07-25T11:46:46.112Z,4.40
2018-07-25T11:49:13.337Z,4.55
2018-07-25T11:51:40.463Z,4.50
2018-07-25T11:54:07.679Z,4.50
2018-07-25T11:56:34.938Z,4.50
2018-07-25T11:59:02.166Z,4.03
2018-07-25T12:01:29.331Z,3.92
2018-07-25T12:03:56.419Z,3.22
2018-07-25T12:06:23.812Z,3.45
2018-07-25T12:08:51.053Z,3.55
2018-07-25T12:11:18.345Z,4.12
2018-07-25T12:13:45.461Z,4.03
2018-07-25T12:16:12.606Z,3.60
2018-07-25T12:18:39.763Z,3.60
2018-07-25T12:21:07.215Z,4.15
2018-07-25T12:23:34.405Z,4.05
2018-07-25T12:26:01.560Z,4.53
2018-07-25T12:28:28.699Z,4.17
2018-07-25T12:30:55.926Z,4.20
2018-07-25T12:33:23.054Z,4.60
2018-07-25T12:35:50.182Z,4.42
2018-07-25T12:38:17.283Z,4.17
2018-07-25T12:40:44.392Z,4.35
2018-07-25T12:43:11.536Z,4.75
2018-07-25T12:45:38.717Z,4.62
2018-07-25T12:48:05.980Z,4.10
2018-07-25T12:50:33.233Z,4.58
2018-07-25T12:53:00.355Z,4.40
2018-07-25T12:55:27.506Z,4.55
2018-07-25T12:57:54.641Z,5.05
2018-07-25T13:00:21.768Z,4.95
2018-07-25T13:02:48.937Z,4.50
2018-07-25T13:05:16.049Z,4.50
2018-07-25T13:07:43.214Z,4.28
2018-07-25T13:10:10.370Z,4.60
2018-07-25T13:12:37.851Z,4.67
2018-07-25T13:15:05.634Z,4.08
2018-07-25T13:17:32.790Z,4.30
2018-07-25T13:20:00.010Z,4.25
2018-07-25T13:22:27.167Z,4.12
2018-07-25T13:24:54.450Z,3.85
2018-07-25T13:27:21.917Z,4.05
2018-07-25T13:29:49.062Z,4.17
2018-07-25T13:32:16.197Z,3.50
2018-07-25T13:34:43.361Z,4.08
2018-07-25T13:37:10.670Z,4.08
2018-07-25T13:39:37.846Z,4.30
2018-07-25T13:42:05.506Z,9.88
2018-07-25T13:44:33.449Z,4.47
2018-07-25T13:47:00.578Z,4.25
2018-07-25T13:49:27.749Z,4.55
2018-07-25T13:51:54.926Z,4.50
2018-07-25T13:54:22.034Z,4.25
2018-07-25T13:56:49.233Z,4.50
2018-07-25T13:59:16.388Z,3.92
2018-07-25T14:01:43.592Z,3.92
2018-07-25T14:04:10.789Z,4.15
2018-07-25T14:06:38.074Z,4.00
2018-07-25T14:09:07.619Z,4.30
2018-07-25T14:11:35.035Z,4.05
2018-07-25T14:14:02.174Z,4.30
2018-07-25T14:16:29.287Z,3.30
2018-07-25T14:18:56.425Z,3.72
2018-07-25T14:21:23.563Z,3.60
2018-07-25T14:23:50.913Z,3.10
2018-07-25T14:26:17.992Z,3.22
2018-07-25T14:28:45.204Z,3.37
2018-07-25T14:31:12.318Z,3.52
2018-07-25T14:33:39.607Z,3.65
2018-07-25T14:36:06.857Z,3.50
2018-07-25T14:38:34.211Z,3.55
2018-07-25T14:41:01.384Z,3.80
2018-07-25T14:43:28.528Z,3.85
2018-07-25T14:45:55.657Z,3.50
2018-07-25T14:48:22.786Z,3.40
2018-07-25T14:50:49.935Z,3.58
2018-07-25T14:53:17.061Z,3.45
2018-07-25T14:55:44.239Z,4.08
2018-07-25T14:58:11.499Z,4.30
2018-07-25T15:00:38.806Z,3.33
2018-07-25T15:03:06.043Z,3.85
2018-07-25T15:05:33.340Z,4.05
2018-07-25T15:08:00.474Z,3.50
2018-07-25T15:10:27.799Z,3.90
2018-07-25T15:12:55.923Z,3.87
2018-07-25T15:15:23.822Z,3.80
2018-07-25T15:17:51.064Z,3.72
2018-07-25T15:20:18.147Z,3.95
2018-07-25T15:22:45.290Z,3.37
2018-07-25T15:25:12.486Z,3.50
2018-07-25T15:27:39.697Z,3.55
2018-07-25T15:30:08.208Z,4.15
2018-07-25T15:32:35.649Z,3.67
2018-07-25T15:35:03.135Z,3.67
2018-07-25T15:37:30.316Z,4.08
2018-07-25T15:39:57.432Z,3.47
2018-07-25T15:42:24.590Z,3.58
2018-07-25T15:44:51.731Z,3.12
2018-07-25T15:47:18.878Z,2.95
2018-07-25T15:49:46.018Z,3.33
2018-07-25T15:52:13.199Z,3.47
2018-07-25T15:54:40.582Z,3.52
2018-07-25T15:57:08.022Z,3.40
2018-07-25T15:59:35.663Z,3.52
2018-07-25T16:02:03.073Z,3.17
2018-07-25T16:04:30.221Z,2.98
2018-07-25T16:06:57.350Z,3.33
2018-07-25T16:09:24.482Z,3.12
2018-07-25T16:11:51.683Z,2.85
2018-07-25T16:14:18.815Z,3.45
2018-07-25T16:16:45.970Z,3.17
2018-07-25T16:19:13.121Z,3.15
2018-07-25T16:21:40.356Z,3.12
2018-07-25T16:24:07.688Z,3.25
2018-07-25T16:26:34.883Z,3.27
2018-07-25T16:29:02.442Z,2.77
2018-07-25T16:31:29.577Z,3.08
2018-07-25T16:33:56.850Z,2.75
2018-07-25T16:36:24.011Z,3.20
2018-07-25T16:38:51.166Z,2.77
2018-07-25T16:41:18.390Z,2.77
2018-07-25T16:43:45.870Z,2.95
2018-07-25T16:46:13.165Z,3.52
2018-07-25T16:48:40.493Z,3.10
2018-07-25T16:51:07.650Z,2.90
2018-07-25T16:53:34.997Z,3.02
2018-07-25T16:56:02.138Z,3.80
2018-07-25T16:58:29.287Z,3.10
2018-07-25T17:00:56.434Z,3.42
2018-07-25T17:03:23.606Z,3.42
2018-07-25T17:05:57.398Z,3.02
2018-07-25T17:08:24.606Z,3.00
2018-07-25T17:10:51.723Z,3.10
2018-07-25T17:13:18.870Z,4.37
2018-07-25T17:15:46.012Z,5.00
2018-07-25T17:18:15.157Z,4.95
2018-07-25T17:20:42.430Z,6.80
2018-07-25T17:23:09.627Z,7.10
2018-07-25T17:25:36.948Z,6.10
2018-07-25T17:28:04.666Z,5.45
2018-07-25T17:30:31.803Z,5.08
2018-07-25T17:32:58.928Z,5.40
2018-07-25T17:35:26.187Z,5.10
2018-07-25T17:37:53.714Z,4.40
2018-07-25T17:40:20.847Z,4.17
2018-07-25T17:42:48.022Z,3.72
2018-07-25T17:45:15.171Z,4.40
2018-07-25T17:47:42.410Z,4.20
2018-07-25T17:50:10.156Z,3.60
2018-07-25T17:52:37.719Z,4.28
2018-07-25T17:55:05.060Z,4.20
2018-07-25T17:57:32.194Z,3.92
2018-07-25T17:59:59.345Z,3.62
2018-07-25T18:02:26.823Z,3.70
2018-07-25T18:04:53.971Z,3.80
2018-07-25T18:07:21.098Z,3.65
2018-07-25T18:09:48.225Z,3.87
2018-07-25T18:12:15.350Z,4.00
2018-07-25T18:14:42.655Z,3.45
2018-07-25T18:17:10.157Z,3.55
2018-07-25T18:19:37.379Z,3.98
2018-07-25T18:22:04.591Z,3.47
2018-07-25T18:24:31.718Z,3.33
2018-07-25T18:26:58.882Z,3.60
2018-07-25T18:29:26.258Z,3.27
2018-07-25T18:31:53.382Z,2.92
2018-07-25T18:34:20.586Z,2.60
2018-07-25T18:36:47.698Z,2.50
2018-07-25T18:39:14.869Z,2.55
2018-07-25T18:41:42.121Z,2.40
2018-07-25T18:44:09.773Z,2.00
2018-07-25T18:46:37.106Z,2.27
2018-07-25T18:49:04.366Z,1.95
2018-07-25T18:51:31.526Z,1.87
2018-07-25T18:53:58.666Z,2.20
2018-07-25T18:56:25.798Z,2.30
2018-07-25T18:58:52.963Z,1.92
2018-07-25T19:01:20.101Z,2.10
2018-07-25T19:03:47.302Z,2.08
2018-07-25T19:06:14.422Z,2.45
2018-07-25T19:08:41.607Z,2.35
2018-07-25T19:11:08.797Z,2.55
2018-07-25T19:13:36.131Z,2.55
2018-07-25T19:16:04.290Z,2.55
2018-07-25T19:18:31.442Z,2.45
2018-07-25T19:20:58.703Z,3.20
2018-07-25T19:23:25.825Z,2.52
2018-07-25T19:25:52.993Z,2.80
2018-07-25T19:28:20.129Z,2.40
2018-07-25T19:30:47.257Z,2.70
2018-07-25T19:33:14.411Z,2.77
2018-07-25T19:35:41.844Z,2.60
2018-07-25T19:38:09.077Z,2.95
2018-07-25T19:40:36.325Z,3.00
2018-07-25T19:43:03.576Z,2.67
2018-07-25T19:45:30.778Z,2.98
2018-07-25T19:47:57.882Z,2.58
2018-07-25T19:50:25.038Z,3.05
2018-07-25T19:52:52.134Z,3.25
2018-07-25T19:55:19.241Z,3.05
2018-07-25T19:57:46.410Z,3.62
2018-07-25T20:00:16.549Z,3.12
2018-07-25T20:02:40.796Z,3.15
2018-07-25T20:05:08.137Z,3.58
2018-07-25T20:07:35.798Z,3.50
2018-07-25T20:10:03.006Z,3.70
2018-07-25T20:12:30.178Z,4.70
2018-07-25T20:15:02.978Z,3.35
2018-07-25T20:17:30.133Z,3.12
2018-07-25T20:19:57.246Z,2.65
2018-07-25T20:22:24.394Z,3.62
2018-07-25T20:24:51.522Z,3.27
2018-07-25T20:27:18.646Z,3.22
2018-07-25T20:29:45.753Z,3.12
2018-07-25T20:32:12.900Z,3.27
2018-07-25T20:34:40.075Z,2.95
2018-07-25T20:37:07.303Z,3.02
2018-07-25T20:39:34.494Z,4.40
2018-07-25T20:42:01.623Z,5.72
2018-07-25T20:44:28.766Z,5.20
2018-07-25T20:46:55.957Z,4.03
2018-07-25T20:49:23.101Z,2.70
2018-07-25T20:51:50.210Z,3.10
2018-07-25T20:54:17.322Z,3.60
2018-07-25T20:56:44.477Z,3.08
2018-07-25T20:59:11.716Z,3.17
2018-07-25T21:01:38.924Z,3.02
2018-07-25T21:04:06.389Z,3.42
2018-07-25T21:06:33.569Z,3.15
2018-07-25T21:09:00.867Z,2.55
2018-07-25T21:11:27.977Z,2.40
2018-07-25T21:13:55.272Z,2.95
2018-07-25T21:16:22.355Z,2.15
2018-07-25T21:18:49.495Z,2.67
2018-07-25T21:21:16.653Z,3.10
2018-07-25T21:23:43.767Z,3.05
2018-07-25T21:26:10.946Z,2.30
2018-07-25T21:28:38.240Z,2.40
2018-07-25T21:31:06.729Z,2.15
2018-07-25T21:33:33.909Z,2.12
2018-07-25T21:36:01.242Z,2.20
2018-07-25T21:38:28.381Z,2.25
2018-07-25T21:40:55.509Z,2.25
2018-07-25T21:43:22.659Z,1.98
2018-07-25T21:45:49.782Z,2.12
2018-07-25T21:48:17.067Z,2.47
2018-07-25T21:50:44.253Z,2.30
2018-07-25T21:53:11.430Z,2.20
2018-07-25T21:55:38.625Z,2.50
2018-07-25T21:58:05.830Z,2.25
2018-07-25T22:00:33.013Z,2.35
2018-07-25T22:03:00.135Z,2.70
2018-07-25T22:05:27.247Z,2.40
2018-07-25T22:07:54.374Z,2.67
2018-07-25T22:10:25.013Z,2.60
2018-07-25T22:12:52.157Z,3.17
2018-07-25T22:15:19.281Z,2.95
2018-07-25T22:17:46.398Z,2.65
2018-07-25T22:20:13.526Z,2.52
2018-07-25T22:22:40.753Z,2.47
2018-07-25T22:25:08.821Z,3.05
2018-07-25T22:27:36.397Z,2.22
2018-07-25T22:30:04.044Z,2.47
2018-07-25T22:32:31.182Z,2.37
2018-07-25T22:34:58.312Z,2.83
2018-07-25T22:37:25.417Z,2.50
2018-07-25T22:39:52.547Z,2.72
2018-07-25T22:42:19.678Z,2.80
2018-07-25T22:44:46.823Z,2.33
2018-07-25T22:47:13.933Z,2.45
2018-07-25T22:49:41.094Z,2.47
2018-07-25T22:52:08.283Z,2.58
2018-07-25T22:54:35.430Z,2.35
2018-07-25T22:57:02.734Z,2.37
2018-07-25T22:59:29.842Z,2.90
2018-07-25T23:01:56.990Z,2.42
2018-07-25T23:04:24.097Z,2.58
2018-07-25T23:06:51.214Z,2.37
2018-07-25T23:09:18.358Z,3.20
2018-07-25T23:11:45.510Z,2.87
2018-07-25T23:14:12.610Z,2.62
2018-07-25T23:16:39.840Z,2.72
2018-07-25T23:19:06.981Z,3.10
2018-07-25T23:21:34.305Z,3.17
2018-07-25T23:24:01.423Z,2.98
2018-07-25T23:26:28.644Z,2.98
2018-07-25T23:28:55.787Z,2.90
2018-07-25T23:31:23.702Z,2.98
2018-07-25T23:33:50.850Z,2.98
2018-07-25T23:36:17.958Z,3.05
2018-07-25T23:38:45.095Z,2.62
2018-07-25T23:41:12.232Z,2.52
2018-07-25T23:43:39.407Z,2.55
2018-07-25T23:46:06.599Z,2.35
2018-07-25T23:48:33.703Z,2.50
2018-07-25T23:51:00.842Z,2.87
2018-07-25T23:53:27.970Z,2.87
2018-07-25T23:55:55.069Z,2.50
2018-07-25T23:58:22.630Z,2.60
